Time;durP1;ratioP1;P1;durP2;ratioP2;P2;SDS_P1;SDS_P2;PMS_P1;PMS_P2;Temp;Humidity;BMP_temperature;BMP_pressure;BME280_temperature;BME280_humidity;BME280_pressure;Samples;Min_cycle;Max_cycle;Signal;HPM_P1;HPM_P2
2024/04/02 00:01:04;;;;;;;1.42;0.50;;;11.50;99.90;;;;;;5054266;28;20249;-74
2024/04/02 00:03:29;;;;;;;0.50;0.50;;;11.60;99.90;;;;;;5033025;28;20275;-72
2024/04/02 00:05:55;;;;;;;1.48;0.40;;;11.60;99.90;;;;;;5049802;28;20242;-72
2024/04/02 00:08:21;;;;;;;0.63;0.60;;;11.60;99.90;;;;;;5025301;28;20250;-73
2024/04/02 00:10:46;;;;;;;1.23;0.60;;;11.60;99.90;;;;;;5050504;28;20187;-74
2024/04/02 00:13:12;;;;;;;1.50;0.60;;;11.60;99.90;;;;;;5042686;28;20192;-73
2024/04/02 00:15:37;;;;;;;0.40;0.40;;;11.60;99.90;;;;;;5034073;28;20232;-73
2024/04/02 00:18:04;;;;;;;0.70;0.60;;;11.60;99.90;;;;;;5050343;28;20286;-74
2024/04/02 00:20:29;;;;;;;1.95;0.70;;;11.60;99.90;;;;;;5044450;28;20188;-76
2024/04/02 00:22:55;;;;;;;0.90;0.80;;;11.70;99.90;;;;;;5035396;28;20194;-76
2024/04/02 00:25:21;;;;;;;0.70;0.60;;;11.60;99.90;;;;;;5045786;28;20219;-76
2024/04/02 00:27:46;;;;;;;0.95;0.75;;;11.60;99.90;;;;;;5048478;28;20183;-75
2024/04/02 00:30:23;;;;;;;1.35;0.70;;;11.60;99.90;;;;;;5056427;28;20255;-74
2024/04/02 00:32:48;;;;;;;1.52;0.63;;;11.70;99.90;;;;;;5044814;28;20179;-73
2024/04/02 00:35:14;;;;;;;1.10;0.50;;;11.60;99.90;;;;;;5038278;28;20216;-73
2024/04/02 00:37:40;;;;;;;1.00;0.50;;;11.60;99.90;;;;;;5034440;28;20220;-74
2024/04/02 00:40:06;;;;;;;1.77;0.73;;;11.60;99.90;;;;;;5052150;28;20187;-73
2024/04/02 00:42:32;;;;;;;0.73;0.50;;;11.60;99.90;;;;;;5039032;28;20238;-75
2024/04/02 00:44:57;;;;;;;3.22;0.82;;;11.60;99.90;;;;;;5046994;28;20261;-74
2024/04/02 00:47:24;;;;;;;0.77;0.60;;;11.50;99.90;;;;;;5053217;28;20191;-74
2024/04/02 00:49:50;;;;;;;0.40;0.40;;;11.50;99.90;;;;;;5045737;28;20572;-75
2024/04/02 00:52:16;;;;;;;1.35;0.60;;;11.50;99.90;;;;;;5041379;28;20181;-74
2024/04/02 00:54:43;;;;;;;0.93;0.60;;;11.50;99.90;;;;;;5033505;28;20188;-75
2024/04/02 00:57:08;;;;;;;0.50;0.50;;;11.50;99.90;;;;;;5029505;28;20184;-75
2024/04/02 00:59:35;;;;;;;0.73;0.50;;;11.50;99.90;;;;;;5026039;28;20192;-74
2024/04/02 01:02:02;;;;;;;0.83;0.67;;;11.50;99.90;;;;;;5040339;28;20208;-75
2024/04/02 01:04:28;;;;;;;1.55;0.40;;;11.40;99.90;;;;;;5031837;28;20173;-75
2024/04/02 01:06:54;;;;;;;1.17;0.65;;;11.40;99.90;;;;;;5023982;28;20737;-74
2024/04/02 01:09:20;;;;;;;0.65;0.45;;;11.40;99.90;;;;;;5053007;28;20237;-74
2024/04/02 01:11:48;;;;;;;0.90;0.70;;;11.40;99.90;;;;;;5019541;28;20295;-75
2024/04/02 01:14:14;;;;;;;0.40;0.40;;;11.40;99.90;;;;;;5033919;28;20229;-74
2024/04/02 01:16:43;;;;;;;0.70;0.65;;;11.40;99.90;;;;;;5053326;28;20214;-74
2024/04/02 01:19:09;;;;;;;0.40;0.40;;;11.40;99.90;;;;;;5051480;28;20179;-75
2024/04/02 01:21:35;;;;;;;0.80;0.60;;;11.40;99.90;;;;;;5025717;28;20211;-75
2024/04/02 01:24:01;;;;;;;0.63;0.52;;;11.40;99.90;;;;;;5035173;28;20251;-76
2024/04/02 01:26:27;;;;;;;0.40;0.40;;;11.40;99.90;;;;;;5029616;28;20261;-75
2024/04/02 01:28:55;;;;;;;0.30;0.30;;;11.40;99.90;;;;;;5051552;28;20183;-74
2024/04/02 01:31:21;;;;;;;2.40;0.93;;;11.40;99.90;;;;;;5050631;28;20233;-76
2024/04/02 01:33:47;;;;;;;1.00;0.73;;;11.40;99.90;;;;;;5034881;28;20187;-76
2024/04/02 01:36:12;;;;;;;0.70;0.60;;;11.40;99.90;;;;;;5052802;28;20771;-74
2024/04/02 01:38:38;;;;;;;1.15;0.57;;;11.40;99.90;;;;;;5052526;28;20191;-74
2024/04/02 01:41:04;;;;;;;0.82;0.50;;;11.40;99.90;;;;;;5026156;28;20280;-75
2024/04/02 01:43:30;;;;;;;1.10;0.50;;;11.30;99.90;;;;;;5052490;28;20212;-75
2024/04/02 01:45:55;;;;;;;0.60;0.60;;;11.30;99.90;;;;;;5035788;28;20654;-74
2024/04/02 01:48:21;;;;;;;1.30;0.57;;;11.30;99.90;;;;;;5057588;28;20654;-75
2024/04/02 01:50:46;;;;;;;0.50;0.43;;;11.30;99.90;;;;;;5050478;28;20184;-75
2024/04/02 01:53:12;;;;;;;0.45;0.45;;;11.30;99.90;;;;;;5026389;28;20666;-75
2024/04/02 01:55:37;;;;;;;1.03;0.80;;;11.30;99.90;;;;;;5032472;28;20225;-75
2024/04/02 01:58:03;;;;;;;2.15;0.50;;;11.20;99.90;;;;;;5051982;28;20184;-75
2024/04/02 02:00:29;;;;;;;2.30;0.50;;;11.30;99.90;;;;;;5051924;28;20900;-74
2024/04/02 02:02:55;;;;;;;2.03;0.60;;;11.30;99.90;;;;;;5045057;28;20180;-76
2024/04/02 02:05:20;;;;;;;2.50;0.60;;;11.30;99.90;;;;;;5045739;28;20288;-74
2024/04/02 02:07:46;;;;;;;1.17;0.60;;;11.30;99.90;;;;;;5040899;28;20191;-74
2024/04/02 02:10:16;;;;;;;0.50;0.50;;;11.30;99.90;;;;;;5033867;28;20228;-74
2024/04/02 02:12:42;;;;;;;0.95;0.52;;;11.10;99.90;;;;;;5043129;28;20187;-75
2024/04/02 02:15:08;;;;;;;0.50;0.50;;;11.10;99.90;;;;;;5045297;28;20269;-74
2024/04/02 02:17:33;;;;;;;0.93;0.60;;;11.00;99.90;;;;;;5034145;28;20172;-75
2024/04/02 02:19:59;;;;;;;1.43;0.50;;;11.00;99.90;;;;;;5051855;28;20676;-74
2024/04/02 02:22:24;;;;;;;0.57;0.43;;;11.00;99.90;;;;;;5042786;28;20261;-74
2024/04/02 02:24:50;;;;;;;0.60;0.50;;;10.90;99.90;;;;;;5022047;28;21682;-74
2024/04/02 02:27:16;;;;;;;3.00;0.73;;;10.90;99.90;;;;;;5052117;28;20196;-74
2024/04/02 02:29:41;;;;;;;2.83;0.57;;;10.90;99.90;;;;;;5051520;28;20183;-75
2024/04/02 02:32:07;;;;;;;0.97;0.70;;;10.90;99.90;;;;;;5030482;28;20271;-75
2024/04/02 02:34:32;;;;;;;0.67;0.47;;;11.00;99.90;;;;;;5043882;28;20180;-74
2024/04/02 02:36:58;;;;;;;0.47;0.47;;;11.00;99.90;;;;;;5034189;28;20658;-74
2024/04/02 02:39:24;;;;;;;0.70;0.70;;;10.90;99.90;;;;;;5051533;28;20183;-74
2024/04/02 02:41:49;;;;;;;1.60;0.53;;;10.90;99.90;;;;;;5028109;28;20700;-74
2024/04/02 02:44:15;;;;;;;1.33;0.70;;;10.90;99.90;;;;;;5051671;28;20186;-74
2024/04/02 02:46:41;;;;;;;1.03;0.70;;;10.90;99.90;;;;;;5034915;28;20634;-73
2024/04/02 02:49:06;;;;;;;1.07;0.50;;;10.80;99.90;;;;;;5042324;28;20177;-75
2024/04/02 02:51:32;;;;;;;0.65;0.57;;;10.80;99.90;;;;;;5057315;28;20192;-73
2024/04/02 02:53:57;;;;;;;0.97;0.50;;;10.90;99.90;;;;;;5047509;28;20220;-73
2024/04/02 02:56:23;;;;;;;2.23;0.50;;;10.90;99.90;;;;;;5047919;28;20219;-73
2024/04/02 02:58:52;;;;;;;0.60;0.50;;;10.90;99.90;;;;;;5036529;28;20195;-75
2024/04/02 03:01:18;;;;;;;0.50;0.50;;;10.80;99.90;;;;;;5031024;28;20220;-75
2024/04/02 03:03:53;;;;;;;0.67;0.53;;;10.80;99.90;;;;;;5047970;28;20194;-73
2024/04/02 03:06:19;;;;;;;0.90;0.50;;;10.80;99.90;;;;;;5037557;28;20223;-74
2024/04/02 03:08:45;;;;;;;1.20;0.50;;;10.80;99.90;;;;;;5033569;28;20193;-74
2024/04/02 03:11:10;;;;;;;1.10;0.47;;;10.80;99.90;;;;;;5043975;28;20216;-75
2024/04/02 03:13:36;;;;;;;1.13;0.50;;;10.80;99.90;;;;;;5042042;28;20274;-74
2024/04/02 03:16:06;;;;;;;0.67;0.50;;;10.80;99.90;;;;;;5039608;28;20208;-74
2024/04/02 03:18:32;;;;;;;1.80;0.50;;;10.70;99.90;;;;;;5038184;28;20597;-74
2024/04/02 03:21:01;;;;;;;1.10;0.60;;;10.60;99.90;;;;;;5041565;28;20207;-73
2024/04/02 03:23:27;;;;;;;0.50;0.40;;;10.60;99.90;;;;;;5045735;28;20184;-73
2024/04/02 03:26:00;;;;;;;0.97;0.63;;;10.60;99.90;;;;;;5051556;28;20241;-75
2024/04/02 03:28:28;;;;;;;1.40;0.50;;;10.70;99.90;;;;;;5052012;28;20650;-75
2024/04/02 03:30:58;;;;;;;0.90;0.60;;;10.60;99.90;;;;;;5036064;28;20221;-77
2024/04/02 03:33:24;;;;;;;0.83;0.60;;;10.60;99.90;;;;;;5047731;28;20198;-74
2024/04/02 03:35:50;;;;;;;2.37;0.70;;;10.60;99.90;;;;;;5018950;28;20216;-74
2024/04/02 03:38:16;;;;;;;1.90;0.67;;;10.70;99.90;;;;;;5044090;28;20632;-75
2024/04/02 03:40:42;;;;;;;0.73;0.60;;;10.70;99.90;;;;;;5048267;28;20195;-74
2024/04/02 03:43:08;;;;;;;0.50;0.50;;;10.70;99.90;;;;;;5025484;28;20219;-74
2024/04/02 03:45:41;;;;;;;0.50;0.50;;;10.70;99.90;;;;;;5041164;28;20204;-74
2024/04/02 03:48:08;;;;;;;0.57;0.40;;;10.70;99.90;;;;;;5026116;28;20220;-74
2024/04/02 03:50:37;;;;;;;2.67;0.60;;;10.70;99.90;;;;;;5042948;28;20200;-75
2024/04/02 03:53:04;;;;;;;1.33;0.50;;;10.90;99.90;;;;;;5046098;28;20179;-76
2024/04/02 03:55:36;;;;;;;1.53;0.57;;;11.00;99.90;;;;;;5036860;28;20791;-74
2024/04/02 03:58:03;;;;;;;0.77;0.60;;;11.10;99.90;;;;;;5035402;28;20188;-73
2024/04/02 04:00:29;;;;;;;0.70;0.50;;;11.20;99.90;;;;;;5028256;28;20180;-73
2024/04/02 04:02:55;;;;;;;0.70;0.50;;;11.20;99.90;;;;;;5060121;28;20658;-75
2024/04/02 04:05:21;;;;;;;1.27;0.70;;;11.30;99.90;;;;;;5055171;28;20883;-74
2024/04/02 04:07:46;;;;;;;0.33;0.33;;;11.40;99.90;;;;;;5052707;28;20180;-74
2024/04/02 04:10:12;;;;;;;0.63;0.50;;;11.40;99.90;;;;;;5053117;28;20176;-74
2024/04/02 04:12:38;;;;;;;2.55;0.70;;;11.50;99.90;;;;;;5057691;28;20245;-76
2024/04/02 04:15:04;;;;;;;1.60;0.57;;;11.60;99.90;;;;;;5036486;28;20204;-74
2024/04/02 04:17:30;;;;;;;1.00;0.60;;;11.60;99.90;;;;;;5030810;28;20191;-74
2024/04/02 04:19:55;;;;;;;1.30;0.70;;;12.00;99.90;;;;;;5054975;28;20572;-75
2024/04/02 04:22:21;;;;;;;1.15;0.52;;;12.40;99.90;;;;;;5051093;28;20226;-72
2024/04/02 04:24:58;;;;;;;0.82;0.55;;;12.70;99.90;;;;;;5045428;28;20674;-73
2024/04/02 04:27:28;;;;;;;1.33;0.60;;;13.20;99.90;;;;;;5019091;28;20517;-73
2024/04/02 04:29:54;;;;;;;3.70;0.60;;;13.00;99.90;;;;;;5032742;28;20624;-72
2024/04/02 04:32:20;;;;;;;0.60;0.50;;;12.50;99.90;;;;;;5033956;28;20658;-76
2024/04/02 04:34:46;;;;;;;1.25;0.50;;;12.10;99.90;;;;;;5025604;28;20203;-76
2024/04/02 04:37:12;;;;;;;0.60;0.57;;;11.70;99.90;;;;;;5023912;28;20749;-76
2024/04/02 04:39:38;;;;;;;3.42;0.63;;;11.60;99.90;;;;;;5026143;28;20212;-76
2024/04/02 04:42:04;;;;;;;3.50;0.68;;;11.50;99.90;;;;;;5036336;28;20231;-75
2024/04/02 04:44:30;;;;;;;2.42;0.50;;;11.40;99.90;;;;;;5026256;28;20193;-76
2024/04/02 04:46:55;;;;;;;0.88;0.60;;;11.30;99.90;;;;;;5016571;28;20216;-76
2024/04/02 04:49:21;;;;;;;3.50;0.80;;;11.30;99.90;;;;;;5048513;28;20183;-75
2024/04/02 04:51:46;;;;;;;1.13;0.43;;;11.20;99.90;;;;;;5042122;28;20188;-75
2024/04/02 04:54:12;;;;;;;1.05;0.75;;;11.20;99.90;;;;;;5037454;28;20184;-76
2024/04/02 04:56:38;;;;;;;1.23;0.50;;;11.10;99.90;;;;;;5051104;28;20226;-76
2024/04/02 04:59:04;;;;;;;2.43;0.67;;;11.10;99.90;;;;;;5028131;28;20192;-76
2024/04/02 05:01:29;;;;;;;1.50;0.95;;;11.20;99.90;;;;;;5033808;28;20219;-73
2024/04/02 05:03:55;;;;;;;1.90;1.43;;;11.10;99.90;;;;;;5035198;28;20572;-76
2024/04/02 05:06:21;;;;;;;4.25;0.68;;;11.10;99.90;;;;;;5034800;28;20204;-77
2024/04/02 05:08:47;;;;;;;0.40;0.40;;;11.20;99.90;;;;;;5044329;28;20172;-74
2024/04/02 05:11:12;;;;;;;1.98;0.70;;;11.20;99.90;;;;;;5049952;28;20231;-75
2024/04/02 05:13:40;;;;;;;2.60;0.73;;;11.20;99.90;;;;;;5042446;28;20597;-73
2024/04/02 05:16:06;;;;;;;2.28;0.60;;;11.20;99.90;;;;;;5034346;28;20537;-74
2024/04/02 05:18:33;;;;;;;1.13;0.60;;;11.20;99.90;;;;;;5034979;28;20173;-75
2024/04/02 05:20:58;;;;;;;2.30;0.70;;;11.20;99.90;;;;;;5035235;28;20211;-75
2024/04/02 05:23:26;;;;;;;1.25;0.60;;;11.20;99.90;;;;;;5055608;28;20224;-75
2024/04/02 05:25:57;;;;;;;1.13;0.87;;;11.20;99.90;;;;;;5046066;28;20697;-77
2024/04/02 05:28:23;;;;;;;4.00;0.90;;;11.30;99.90;;;;;;5036127;28;20257;-75
2024/04/02 05:30:48;;;;;;;2.47;0.90;;;11.30;99.90;;;;;;5043680;28;20512;-75
2024/04/02 05:33:14;;;;;;;2.23;0.70;;;11.20;99.90;;;;;;5019962;28;20180;-75
2024/04/02 05:35:39;;;;;;;1.50;0.80;;;11.30;99.90;;;;;;5044524;28;20639;-74
2024/04/02 05:38:06;;;;;;;1.25;0.55;;;11.30;99.90;;;;;;5036645;28;20273;-76
2024/04/02 05:40:32;;;;;;;1.17;0.60;;;11.20;99.90;;;;;;5054786;28;20259;-76
2024/04/02 05:42:58;;;;;;;0.82;0.50;;;11.30;99.90;;;;;;5045432;28;20232;-76
2024/04/02 05:45:24;;;;;;;0.70;0.60;;;11.30;99.90;;;;;;5034911;28;20203;-75
2024/04/02 05:47:49;;;;;;;2.63;0.80;;;11.50;99.90;;;;;;5042319;28;20214;-74
2024/04/02 05:50:17;;;;;;;0.50;0.45;;;11.60;99.90;;;;;;5052412;28;20204;-75
2024/04/02 05:52:43;;;;;;;2.45;0.70;;;11.70;99.90;;;;;;5043821;28;20196;-74
2024/04/02 05:55:09;;;;;;;3.63;0.68;;;11.70;99.90;;;;;;5035346;28;20223;-74
2024/04/02 05:57:35;;;;;;;2.20;0.70;;;11.80;99.90;;;;;;5037341;28;20184;-74
2024/04/02 06:00:01;;;;;;;0.98;0.50;;;12.00;99.90;;;;;;5054651;28;20186;-75
2024/04/02 06:02:26;;;;;;;2.92;0.70;;;12.00;99.90;;;;;;5042342;28;20450;-74
2024/04/02 06:04:52;;;;;;;0.80;0.60;;;11.80;99.90;;;;;;5026496;28;20210;-75
2024/04/02 06:07:18;;;;;;;1.55;0.60;;;11.70;99.90;;;;;;5043545;28;20350;-76
2024/04/02 06:09:44;;;;;;;2.00;0.50;;;11.60;99.90;;;;;;5038113;28;20188;-75
2024/04/02 06:12:09;;;;;;;0.85;0.65;;;11.70;99.90;;;;;;5034041;28;20646;-76
2024/04/02 06:14:35;;;;;;;0.60;0.60;;;12.10;99.90;;;;;;5050917;28;20258;-76
2024/04/02 06:17:01;;;;;;;1.08;0.60;;;12.10;99.90;;;;;;5045140;22;20246;-74
2024/04/02 06:19:27;;;;;;;1.88;0.80;;;12.00;99.90;;;;;;5033267;28;20188;-75
2024/04/02 06:21:52;;;;;;;0.90;0.70;;;12.00;99.90;;;;;;5027280;28;20222;-73
2024/04/02 06:24:18;;;;;;;2.10;0.50;;;12.70;99.90;;;;;;5044110;28;20194;-73
2024/04/02 06:26:44;;;;;;;0.98;0.40;;;14.10;99.90;;;;;;5045502;28;20369;-73
2024/04/02 06:29:10;;;;;;;2.13;0.60;;;13.40;99.90;;;;;;5041795;28;20187;-72
2024/04/02 06:31:36;;;;;;;0.60;0.50;;;13.10;99.90;;;;;;5038211;28;20183;-73
2024/04/02 06:34:01;;;;;;;1.65;0.50;;;12.70;99.90;;;;;;5055519;28;20226;-74
2024/04/02 06:36:29;;;;;;;1.70;0.73;;;12.40;99.90;;;;;;5047887;28;20222;-73
2024/04/02 06:38:55;;;;;;;1.45;0.50;;;12.30;99.90;;;;;;5048818;28;20183;-75
2024/04/02 06:41:21;;;;;;;1.80;0.68;;;12.20;99.90;;;;;;5030213;28;20646;-74
2024/04/02 06:43:46;;;;;;;1.55;0.70;;;12.00;99.90;;;;;;5030608;28;20213;-74
2024/04/02 06:46:12;;;;;;;1.00;0.65;;;11.90;99.90;;;;;;5046501;28;20214;-75
2024/04/02 06:48:37;;;;;;;0.73;0.45;;;11.70;99.90;;;;;;5045700;28;20275;-74
2024/04/02 06:51:10;;;;;;;0.93;0.43;;;11.60;99.90;;;;;;5050252;28;20184;-72
2024/04/02 06:53:36;;;;;;;1.95;0.40;;;11.60;99.90;;;;;;5028120;28;20262;-74
2024/04/02 06:56:03;;;;;;;1.80;0.70;;;11.60;99.90;;;;;;5055268;28;20736;-74
2024/04/02 06:58:29;;;;;;;1.77;0.60;;;11.50;99.90;;;;;;5053616;28;20207;-73
2024/04/02 07:00:55;;;;;;;0.50;0.50;;;11.50;99.90;;;;;;5039344;28;20666;-74
2024/04/02 07:03:22;;;;;;;0.40;0.40;;;11.50;99.90;;;;;;5059362;28;20175;-74
2024/04/02 07:05:52;;;;;;;0.97;0.80;;;11.40;99.90;;;;;;5060739;28;20246;-73
2024/04/02 07:08:18;;;;;;;0.50;0.50;;;11.40;99.90;;;;;;5058822;28;20263;-73
2024/04/02 07:10:58;;;;;;;0.63;0.52;;;11.40;99.90;;;;;;5058856;28;20180;-73
2024/04/02 07:13:24;;;;;;;1.25;0.60;;;11.40;99.90;;;;;;5052320;28;20663;-74
2024/04/02 07:15:50;;;;;;;2.20;0.77;;;11.40;99.90;;;;;;5034813;28;20587;-72
2024/04/02 07:18:15;;;;;;;0.52;0.47;;;11.40;99.90;;;;;;5054709;28;20212;-74
2024/04/02 07:20:41;;;;;;;0.80;0.60;;;11.40;99.90;;;;;;5057497;28;20180;-74
2024/04/02 07:23:08;;;;;;;3.72;0.80;;;11.90;99.90;;;;;;5049300;28;20187;-74
2024/04/02 07:25:33;;;;;;;1.10;0.50;;;12.70;99.90;;;;;;5054734;28;20203;-74
2024/04/02 07:27:59;;;;;;;0.40;0.40;;;13.90;99.90;;;;;;5039482;28;20204;-73
2024/04/02 07:30:25;;;;;;;1.02;0.60;;;14.60;99.90;;;;;;5035030;28;20192;-73
2024/04/02 07:32:51;;;;;;;0.80;0.55;;;14.70;99.90;;;;;;5034994;28;20192;-73
2024/04/02 07:35:17;;;;;;;1.17;0.70;;;14.00;99.90;;;;;;5043515;28;20553;-72
2024/04/02 07:37:43;;;;;;;2.38;0.80;;;13.60;99.90;;;;;;5054201;28;20230;-73
2024/04/02 07:40:12;;;;;;;1.58;0.63;;;13.50;99.90;;;;;;5054372;28;20184;-73
2024/04/02 07:42:37;;;;;;;0.90;0.75;;;13.40;99.90;;;;;;5048237;28;20212;-74
2024/04/02 07:45:03;;;;;;;0.88;0.80;;;13.70;99.90;;;;;;5038662;28;20191;-73
2024/04/02 07:47:29;;;;;;;2.72;0.50;;;13.70;99.90;;;;;;5035606;28;20241;-74
2024/04/02 07:49:58;;;;;;;0.90;0.50;;;13.50;99.90;;;;;;5035196;28;20214;-72
2024/04/02 07:52:23;;;;;;;2.17;0.60;;;13.30;99.90;;;;;;5045248;28;20685;-74
2024/04/02 07:54:49;;;;;;;2.53;0.95;;;13.00;99.90;;;;;;5036317;28;20191;-73
2024/04/02 07:57:14;;;;;;;1.58;0.47;;;12.80;99.90;;;;;;5043526;28;20256;-72
2024/04/02 07:59:40;;;;;;;1.38;0.50;;;12.60;99.90;;;;;;5034572;28;20262;-74
2024/04/02 08:02:06;;;;;;;1.17;0.60;;;12.30;99.90;;;;;;5049596;28;20200;-73
2024/04/02 08:04:31;;;;;;;1.60;0.80;;;12.30;99.90;;;;;;5053394;28;20176;-74
2024/04/02 08:06:57;;;;;;;0.50;0.50;;;12.30;99.90;;;;;;5046793;28;20695;-74
2024/04/02 08:09:23;;;;;;;0.80;0.60;;;12.20;99.90;;;;;;5045826;28;20266;-72
2024/04/02 08:11:48;;;;;;;1.42;0.50;;;12.20;99.90;;;;;;5054544;28;20286;-74
2024/04/02 08:14:14;;;;;;;0.50;0.50;;;12.70;99.90;;;;;;5055621;28;20229;-74
2024/04/02 08:16:40;;;;;;;1.00;0.47;;;13.30;99.90;;;;;;5057507;28;20646;-74
2024/04/02 08:19:06;;;;;;;0.73;0.50;;;13.80;99.90;;;;;;5051691;28;20303;-74
2024/04/02 08:21:31;;;;;;;0.98;0.40;;;14.00;99.90;;;;;;5056943;28;20592;-73
2024/04/02 08:23:57;;;;;;;0.80;0.50;;;14.00;99.90;;;;;;5047878;28;20215;-72
2024/04/02 08:26:23;;;;;;;1.05;0.80;;;14.00;99.90;;;;;;5055007;28;20234;-72
2024/04/02 08:28:49;;;;;;;1.02;0.70;;;14.10;99.90;;;;;;5060885;28;20212;-72
2024/04/02 08:31:14;;;;;;;2.15;0.52;;;14.00;99.90;;;;;;5060254;28;20542;-73
2024/04/02 08:33:40;;;;;;;0.55;0.50;;;13.90;99.90;;;;;;5054098;28;20183;-72
2024/04/02 08:36:06;;;;;;;0.75;0.50;;;13.50;99.90;;;;;;5054711;28;20653;-73
2024/04/02 08:38:32;;;;;;;0.40;0.40;;;13.20;99.90;;;;;;5043781;28;20212;-71
2024/04/02 08:41:04;;;;;;;2.47;0.50;;;13.00;99.90;;;;;;5052547;28;20191;-74
2024/04/02 08:43:31;;;;;;;1.38;0.50;;;12.80;99.90;;;;;;5047687;28;20251;-73
2024/04/02 08:46:01;;;;;;;0.63;0.40;;;12.60;99.90;;;;;;5055162;28;20179;-72
2024/04/02 08:48:26;;;;;;;1.15;0.50;;;12.50;99.90;;;;;;5034925;28;20204;-72
2024/04/02 08:50:53;;;;;;;0.57;0.47;;;12.20;99.90;;;;;;5034274;28;20220;-72
2024/04/02 08:53:19;;;;;;;0.65;0.52;;;12.00;99.90;;;;;;5045593;28;20251;-71
2024/04/02 08:55:46;;;;;;;0.68;0.50;;;11.90;99.90;;;;;;5059983;28;20286;-74
2024/04/02 08:58:12;;;;;;;0.63;0.40;;;11.80;99.90;;;;;;5054495;28;20264;-72
2024/04/02 09:00:38;;;;;;;0.52;0.52;;;11.70;99.90;;;;;;5052648;28;20717;-72
2024/04/02 09:03:06;;;;;;;1.33;0.88;;;11.60;99.90;;;;;;5050380;28;20220;-73
2024/04/02 09:05:32;;;;;;;0.70;0.50;;;11.60;99.90;;;;;;5055792;28;20195;-72
2024/04/02 09:07:58;;;;;;;2.72;0.80;;;11.70;99.90;;;;;;5055875;28;20206;-72
2024/04/02 09:10:23;;;;;;;0.50;0.50;;;11.70;99.90;;;;;;5055401;28;20183;-73
2024/04/02 09:12:49;;;;;;;1.00;0.50;;;11.70;99.90;;;;;;5055224;28;20238;-73
2024/04/02 09:15:15;;;;;;;0.43;0.43;;;11.70;99.90;;;;;;5028985;28;20191;-74
2024/04/02 09:17:41;;;;;;;2.42;0.50;;;11.80;99.90;;;;;;5047699;28;20561;-74
2024/04/02 09:20:07;;;;;;;0.40;0.40;;;11.90;99.90;;;;;;5039221;28;20275;-72
2024/04/02 09:22:33;;;;;;;0.63;0.35;;;11.80;99.90;;;;;;5039610;28;20599;-75
2024/04/02 09:24:58;;;;;;;0.40;0.40;;;11.70;99.90;;;;;;5044363;28;20191;-72
2024/04/02 09:27:24;;;;;;;0.55;0.38;;;11.60;99.90;;;;;;5045577;28;20213;-72
2024/04/02 09:29:54;;;;;;;0.45;0.38;;;11.60;99.90;;;;;;5043029;28;20180;-73
2024/04/02 09:32:23;;;;;;;3.03;0.50;;;11.60;99.90;;;;;;5035437;28;20192;-73
2024/04/02 09:34:52;;;;;;;0.50;0.47;;;11.70;99.90;;;;;;5035369;28;20192;-72
2024/04/02 09:37:35;;;;;;;1.50;0.80;;;11.70;99.90;;;;;;5046420;28;20200;-72
2024/04/02 09:40:03;;;;;;;3.15;0.63;;;12.00;99.90;;;;;;5062758;28;20188;-72
2024/04/02 09:42:30;;;;;;;0.82;0.60;;;12.60;99.90;;;;;;5064507;28;20188;-74
2024/04/02 09:44:58;;;;;;;1.15;0.95;;;13.10;99.90;;;;;;5055563;28;20212;-72
2024/04/02 09:47:25;;;;;;;0.95;0.60;;;13.70;99.90;;;;;;5058399;28;20238;-72
2024/04/02 09:49:52;;;;;;;2.45;0.70;;;14.00;99.90;;;;;;5042916;28;20180;-73
2024/04/02 09:52:18;;;;;;;1.63;0.60;;;14.20;99.90;;;;;;5057356;28;20275;-73
2024/04/02 09:54:45;;;;;;;3.28;0.90;;;14.10;99.90;;;;;;5056126;28;20187;-73
2024/04/02 09:57:13;;;;;;;2.38;0.70;;;14.10;99.90;;;;;;5054153;28;20218;-73
2024/04/02 09:59:40;;;;;;;2.83;0.90;;;13.90;99.90;;;;;;5057737;28;20180;-72
2024/04/02 10:02:13;;;;;;;7.65;1.20;;;13.60;99.90;;;;;;5039321;28;20211;-73
2024/04/02 10:04:40;;;;;;;4.30;1.05;;;13.30;99.90;;;;;;5016534;28;20183;-72
2024/04/02 10:07:06;;;;;;;3.25;1.10;;;13.20;99.90;;;;;;5044550;28;20304;-73
2024/04/02 10:09:42;;;;;;;4.90;0.88;;;13.30;99.90;;;;;;5037081;28;20180;-72
2024/04/02 10:12:08;;;;;;;5.53;0.90;;;13.20;99.90;;;;;;5031330;28;20191;-73
2024/04/02 10:14:36;;;;;;;2.45;0.77;;;13.10;99.90;;;;;;5044053;28;20639;-74
2024/04/02 10:17:02;;;;;;;2.45;0.80;;;13.30;99.90;;;;;;5045595;28;20223;-73
2024/04/02 10:19:29;;;;;;;3.25;1.10;;;13.50;99.90;;;;;;5046892;28;20666;-73
2024/04/02 10:21:55;;;;;;;3.92;1.23;;;13.60;99.90;;;;;;5030953;28;20210;-75
2024/04/02 10:24:24;;;;;;;4.70;1.00;;;13.70;99.90;;;;;;5039894;28;20270;-73
2024/04/02 10:26:53;;;;;;;5.20;1.00;;;13.80;99.90;;;;;;5036719;28;20203;-73
2024/04/02 10:29:31;;;;;;;4.40;1.05;;;13.70;99.90;;;;;;5049917;28;20259;-73
2024/04/02 10:31:57;;;;;;;3.70;0.95;;;13.50;99.90;;;;;;5045276;28;20188;-73
2024/04/02 10:34:24;;;;;;;3.35;0.90;;;13.40;99.90;;;;;;5033920;28;20212;-72
2024/04/02 10:36:51;;;;;;;2.25;0.80;;;13.40;99.90;;;;;;5044019;28;20208;-72
2024/04/02 10:39:16;;;;;;;2.25;1.20;;;13.40;99.90;;;;;;5016415;28;20204;-75
2024/04/02 10:41:45;;;;;;;4.38;1.17;;;13.40;99.90;;;;;;5041807;28;20219;-73
2024/04/02 10:44:11;;;;;;;7.78;1.77;;;13.40;99.90;;;;;;5041462;28;20318;-72
2024/04/02 10:46:39;;;;;;;3.10;0.90;;;13.40;99.90;;;;;;5052291;28;20596;-74
2024/04/02 10:49:05;;;;;;;5.05;1.10;;;13.30;99.90;;;;;;5039833;28;20644;-73
2024/04/02 10:51:32;;;;;;;5.60;1.00;;;13.10;99.90;;;;;;5041995;28;20234;-73
2024/04/02 10:53:59;;;;;;;1.98;0.65;;;13.00;99.90;;;;;;5047425;28;20548;-73
2024/04/02 10:56:30;;;;;;;1.98;0.70;;;12.80;99.90;;;;;;5032960;28;20247;-72
2024/04/02 10:58:56;;;;;;;2.90;0.70;;;12.80;99.90;;;;;;5038601;28;20184;-73
2024/04/02 11:01:22;;;;;;;2.67;0.80;;;13.00;99.90;;;;;;5036881;28;20205;-74
2024/04/02 11:03:50;;;;;;;3.35;1.08;;;13.10;99.90;;;;;;5035368;28;20183;-74
2024/04/02 11:06:16;;;;;;;4.63;0.98;;;13.10;99.90;;;;;;5041558;28;20199;-75
2024/04/02 11:08:44;;;;;;;4.53;1.00;;;13.10;99.90;;;;;;5034032;28;20626;-74
2024/04/02 11:11:19;;;;;;;1.65;0.93;;;13.00;99.90;;;;;;5053082;28;20267;-75
2024/04/02 11:13:44;;;;;;;4.30;1.80;;;13.00;99.90;;;;;;5052967;28;20179;-74
2024/04/02 11:16:10;;;;;;;4.30;1.13;;;13.00;99.90;;;;;;5043863;28;20183;-74
2024/04/02 11:18:36;;;;;;;9.38;0.98;;;13.20;99.90;;;;;;5046366;28;20670;-73
2024/04/02 11:21:02;;;;;;;2.45;0.90;;;13.40;99.90;;;;;;5049937;28;20204;-73
2024/04/02 11:26:19;;;;;;;3.53;0.98;;;13.40;99.90;;;;;;5032780;28;20198;-73
2024/04/02 11:28:45;;;;;;;1.67;0.95;;;13.60;99.90;;;;;;5047388;28;20201;-75
2024/04/02 11:31:12;;;;;;;3.58;0.80;;;13.80;99.90;;;;;;5040593;28;20275;-73
2024/04/02 11:33:41;;;;;;;4.18;1.05;;;14.20;99.90;;;;;;5044185;28;20242;-74
2024/04/02 11:36:07;;;;;;;3.13;0.70;;;14.30;99.90;;;;;;5049429;28;20188;-73
2024/04/02 11:38:39;;;;;;;4.30;0.70;;;14.20;99.90;;;;;;5045668;28;20199;-73
2024/04/02 11:41:08;;;;;;;2.40;0.60;;;14.30;99.90;;;;;;5048206;28;20184;-73
2024/04/02 11:43:34;;;;;;;2.78;1.13;;;14.70;99.90;;;;;;5041467;28;20169;-74
2024/04/02 11:45:59;;;;;;;2.63;0.90;;;15.00;99.90;;;;;;5034142;28;20330;-75
2024/04/02 11:48:25;;;;;;;5.43;1.27;;;15.30;99.90;;;;;;5033910;28;20223;-75
2024/04/02 11:50:51;;;;;;;2.95;0.90;;;15.30;99.90;;;;;;5057491;28;20176;-74
2024/04/02 11:53:17;;;;;;;3.05;0.80;;;15.50;99.90;;;;;;5048270;28;20180;-75
2024/04/02 11:55:44;;;;;;;1.60;0.82;;;15.50;99.90;;;;;;5054347;28;20218;-74
2024/04/02 12:00:55;;;;;;;2.10;0.68;;;15.10;99.90;;;;;;5043387;28;20194;-75
2024/04/02 12:03:20;;;;;;;4.85;1.45;;;14.90;99.90;;;;;;5049767;28;20172;-75
2024/04/02 12:05:46;;;;;;;2.95;0.70;;;14.60;99.90;;;;;;5053287;28;20188;-74
2024/04/02 12:08:11;;;;;;;5.25;0.95;;;14.60;99.90;;;;;;5052658;28;20654;-75
2024/04/02 12:10:37;;;;;;;4.35;0.77;;;14.60;99.90;;;;;;5039105;28;20179;-75
2024/04/02 12:13:04;;;;;;;2.95;0.77;;;14.70;99.90;;;;;;5038968;28;20184;-75
2024/04/02 12:15:29;;;;;;;2.45;0.70;;;15.10;99.90;;;;;;5057212;28;20180;-74
2024/04/02 12:17:58;;;;;;;0.80;0.50;;;15.30;99.90;;;;;;5079261;22;20540;-71
2024/04/02 12:20:24;;;;;;;8.02;0.85;;;15.60;99.90;;;;;;5054613;28;20188;-73
2024/04/02 12:22:49;;;;;;;0.93;0.43;;;15.80;99.90;;;;;;5076468;28;20238;-74
2024/04/02 12:25:15;;;;;;;5.03;0.70;;;15.70;99.90;;;;;;5062723;28;20179;-74
2024/04/02 12:27:40;;;;;;;3.33;0.95;;;15.80;99.90;;;;;;5051098;28;20211;-73
2024/04/02 12:30:07;;;;;;;1.38;0.75;;;15.90;99.90;;;;;;5051958;28;20615;-73
2024/04/02 12:32:33;;;;;;;1.73;0.50;;;16.10;99.90;;;;;;5058119;28;20172;-74
2024/04/02 12:34:59;;;;;;;8.90;5.53;;;16.20;99.90;;;;;;5049263;28;20557;-74
2024/04/02 12:37:25;;;;;;;1.58;0.98;;;16.10;99.90;;;;;;5048672;28;20279;-73
2024/04/02 12:39:51;;;;;;;1.15;0.73;;;16.00;99.90;;;;;;5036527;28;20192;-73
2024/04/02 12:42:19;;;;;;;1.95;0.88;;;15.90;99.90;;;;;;5043369;28;20234;-73
2024/04/02 12:44:45;;;;;;;2.95;0.80;;;15.90;99.90;;;;;;5020198;28;20184;-73
2024/04/02 12:47:11;;;;;;;2.67;0.63;;;15.60;99.90;;;;;;5033358;28;20279;-72
2024/04/02 12:49:38;;;;;;;6.15;1.20;;;15.00;99.90;;;;;;5045649;28;20560;-73